Time;durP1;ratioP1;P1;durP2;ratioP2;P2;SDS_P1;SDS_P2;PMS_P1;PMS_P2;Temp;Humidity;BMP_temperature;BMP_pressure;BME280_temperature;BME280_humidity;BME280_pressure;Samples;Min_cycle;Max_cycle;Signal;HPM_P1;HPM_P2
2023/03/26 00:01:45;;;;;;;0.70;0.70;;;17.30;76.40;;;;;;5012622;28;20209;-64
2023/03/26 00:04:34;;;;;;;0.70;0.65;;;17.30;76.40;;;;;;5011941;28;20286;-64
2023/03/26 00:07:23;;;;;;;2.13;0.80;;;17.20;76.10;;;;;;5012316;28;20701;-64
2023/03/26 00:10:11;;;;;;;1.00;0.60;;;17.30;76.30;;;;;;5013466;28;20215;-64
2023/03/26 00:12:59;;;;;;;1.00;0.80;;;17.30;76.20;;;;;;5011778;28;20466;-64
2023/03/26 00:15:48;;;;;;;0.80;0.65;;;17.30;76.30;;;;;;5012889;28;20203;-64
2023/03/26 00:18:36;;;;;;;1.65;0.95;;;17.30;76.10;;;;;;5012356;28;20226;-63
2023/03/26 00:21:27;;;;;;;0.82;0.60;;;17.30;76.10;;;;;;5012722;28;20560;-64
2023/03/26 00:24:16;;;;;;;1.40;0.82;;;17.20;76.10;;;;;;5012224;28;20287;-63
2023/03/26 00:27:04;;;;;;;2.28;1.15;;;17.30;76.10;;;;;;5012035;28;20247;-64
2023/03/26 00:29:55;;;;;;;2.22;0.98;;;17.30;76.20;;;;;;5012558;28;20242;-64
2023/03/26 00:32:43;;;;;;;0.80;0.80;;;17.30;76.10;;;;;;5013862;28;20203;-64
2023/03/26 00:35:42;;;;;;;1.33;0.70;;;17.30;76.20;;;;;;5008944;28;20195;-64
2023/03/26 00:38:32;;;;;;;1.17;0.75;;;17.30;75.90;;;;;;5012284;28;20219;-64
2023/03/26 00:41:25;;;;;;;1.25;0.80;;;17.30;75.90;;;;;;5012300;28;20619;-64
2023/03/26 00:44:14;;;;;;;3.65;0.90;;;17.30;75.70;;;;;;5011243;28;20216;-64
2023/03/26 00:47:02;;;;;;;1.65;0.80;;;17.30;75.90;;;;;;5011798;28;20213;-63
2023/03/26 00:49:50;;;;;;;0.77;0.60;;;17.20;75.80;;;;;;5012289;28;20215;-63
2023/03/26 00:52:38;;;;;;;0.95;0.60;;;17.20;76.00;;;;;;5011277;28;20202;-64
2023/03/26 00:55:27;;;;;;;0.60;0.60;;;17.20;76.30;;;;;;5011612;28;20217;-64
2023/03/26 00:58:16;;;;;;;0.77;0.60;;;17.40;91.60;;;;;;5044086;28;20246;-64
2023/03/26 01:01:07;;;;;;;2.28;0.82;;;17.20;76.70;;;;;;5051847;28;20243;-63
2023/03/26 01:03:58;;;;;;;1.02;0.70;;;17.20;76.70;;;;;;5051558;28;20217;-63
2023/03/26 01:06:57;;;;;;;0.90;0.80;;;17.30;76.90;;;;;;5053210;28;20208;-64
2023/03/26 01:09:49;;;;;;;2.58;0.90;;;17.20;77.10;;;;;;5043496;28;20228;-63
2023/03/26 01:12:38;;;;;;;0.70;0.70;;;17.20;77.20;;;;;;5035327;28;20686;-64
2023/03/26 01:15:28;;;;;;;1.20;0.77;;;17.20;77.40;;;;;;5036013;28;20280;-64
2023/03/26 01:18:19;;;;;;;0.80;0.80;;;17.20;92.70;;;;;;5035501;28;20198;-63
2023/03/26 01:21:08;;;;;;;2.35;1.02;;;17.20;77.70;;;;;;5036040;28;20698;-64
2023/03/26 01:23:59;;;;;;;2.70;0.85;;;17.20;77.80;;;;;;5035434;28;20213;-63
2023/03/26 01:27:00;;;;;;;0.70;0.70;;;17.20;77.70;;;;;;5034956;28;20213;-64
2023/03/26 01:29:53;;;;;;;1.40;0.80;;;17.20;77.40;;;;;;5035094;28;20701;-64
2023/03/26 01:32:51;;;;;;;0.90;0.80;;;17.20;77.50;;;;;;5035087;28;20240;-63
2023/03/26 01:35:45;;;;;;;0.70;0.70;;;17.20;77.20;;;;;;5034783;28;20198;-63
2023/03/26 01:38:45;;;;;;;0.90;0.80;;;17.20;77.10;;;;;;5034945;28;20723;-63
2023/03/26 01:41:42;;;;;;;1.08;0.98;;;17.30;77.00;;;;;;5034888;28;20585;-64
2023/03/26 01:44:38;;;;;;;2.72;1.27;;;17.30;77.00;;;;;;5034461;28;20695;-63
2023/03/26 01:47:27;;;;;;;1.08;0.70;;;17.30;76.70;;;;;;5034584;28;20234;-64
2023/03/26 01:50:15;;;;;;;4.82;1.08;;;17.30;76.70;;;;;;5034997;28;20594;-64
2023/03/26 01:53:04;;;;;;;0.70;0.70;;;17.30;76.80;;;;;;5034009;28;20201;-64
2023/03/26 01:56:05;;;;;;;0.88;0.80;;;17.30;77.00;;;;;;5034845;28;20206;-64
2023/03/26 01:59:07;;;;;;;0.80;0.80;;;17.30;76.80;;;;;;5053899;28;20303;-63
2023/03/26 02:02:03;;;;;;;1.50;1.25;;;17.20;76.60;;;;;;5053335;28;20687;-64
2023/03/26 02:04:55;;;;;;;1.35;0.80;;;17.20;76.60;;;;;;5052954;28;20197;-63
2023/03/26 02:07:49;;;;;;;0.82;0.65;;;17.20;76.70;;;;;;5054121;28;20335;-63
2023/03/26 02:10:42;;;;;;;1.08;0.77;;;17.20;76.70;;;;;;5053482;28;20198;-64
2023/03/26 02:13:31;;;;;;;0.80;0.77;;;17.20;76.80;;;;;;5053233;28;20288;-63
2023/03/26 02:16:20;;;;;;;1.35;0.75;;;17.20;77.20;;;;;;5053345;28;20238;-64
2023/03/26 02:19:14;;;;;;;1.35;0.73;;;17.20;77.40;;;;;;5054206;28;20233;-64
2023/03/26 02:22:03;;;;;;;1.08;0.70;;;18.60;78.90;;;;;;5058392;28;20197;-64
2023/03/26 02:24:51;;;;;;;1.13;0.90;;;17.10;77.60;;;;;;5059896;28;20319;-64
2023/03/26 02:27:41;;;;;;;1.70;0.80;;;17.10;77.60;;;;;;5058766;28;20284;-64
2023/03/26 02:30:29;;;;;;;1.15;0.85;;;17.20;77.70;;;;;;5054015;28;20228;-63
2023/03/26 02:33:20;;;;;;;1.25;0.80;;;17.20;77.50;;;;;;5054525;28;20201;-64
2023/03/26 02:36:11;;;;;;;0.80;0.80;;;17.20;77.50;;;;;;5053551;28;20670;-63
2023/03/26 02:38:59;;;;;;;1.35;0.60;;;17.20;77.30;;;;;;5053954;28;20228;-63
2023/03/26 02:41:47;;;;;;;2.03;0.95;;;17.20;77.30;;;;;;5047394;28;20221;-63
2023/03/26 02:44:37;;;;;;;1.45;0.80;;;17.10;77.10;;;;;;5054014;28;20685;-64
2023/03/26 02:47:25;;;;;;;2.15;0.70;;;17.20;77.00;;;;;;5053991;28;20201;-64
2023/03/26 02:50:15;;;;;;;1.55;1.08;;;17.10;76.90;;;;;;5053754;28;20253;-64
2023/03/26 02:53:03;;;;;;;1.20;0.70;;;17.20;76.90;;;;;;5053439;28;20202;-64
2023/03/26 02:55:51;;;;;;;0.98;0.70;;;17.30;77.00;;;;;;5054720;28;20642;-63
2023/03/26 02:58:39;;;;;;;1.02;0.70;;;17.20;77.00;;;;;;5052937;28;20221;-64
2023/03/26 03:01:29;;;;;;;0.82;0.80;;;17.20;76.90;;;;;;5052902;28;20213;-64
2023/03/26 03:04:17;;;;;;;2.35;0.80;;;17.20;76.90;;;;;;5052620;28;20198;-64
2023/03/26 03:07:07;;;;;;;0.70;0.70;;;17.20;77.00;;;;;;5054406;28;20197;-64
2023/03/26 03:09:55;;;;;;;0.98;0.60;;;17.20;77.10;;;;;;5044695;28;20229;-64
2023/03/26 03:12:43;;;;;;;0.70;0.70;;;17.10;77.10;;;;;;5031970;28;20202;-64
2023/03/26 03:15:31;;;;;;;0.88;0.80;;;17.10;77.20;;;;;;5034143;28;20706;-64
2023/03/26 03:18:19;;;;;;;1.45;0.80;;;17.30;77.30;;;;;;5044875;28;20286;-64
2023/03/26 03:21:07;;;;;;;1.23;1.13;;;17.10;77.20;;;;;;5052077;28;20776;-64
2023/03/26 03:23:57;;;;;;;0.68;0.68;;;17.10;77.10;;;;;;5053109;28;20614;-64
2023/03/26 03:26:49;;;;;;;1.00;0.75;;;17.10;76.90;;;;;;5052506;28;20202;-63
2023/03/26 03:29:37;;;;;;;1.00;0.90;;;17.10;77.00;;;;;;5052448;28;20225;-63
2023/03/26 03:32:26;;;;;;;0.77;0.70;;;17.00;76.90;;;;;;5051635;28;20194;-64
2023/03/26 03:35:14;;;;;;;1.95;0.80;;;17.10;76.80;;;;;;5052998;28;20216;-64
2023/03/26 03:38:02;;;;;;;0.95;0.70;;;16.90;88.40;;;;;;5052992;28;20280;-64
2023/03/26 03:40:54;;;;;;;1.23;0.90;;;17.10;76.60;;;;;;5052821;28;20324;-64
2023/03/26 03:43:42;;;;;;;0.68;0.63;;;17.00;76.60;;;;;;5052586;28;20201;-64
2023/03/26 03:46:30;;;;;;;1.13;0.60;;;17.00;76.50;;;;;;5052917;28;20290;-64
2023/03/26 03:49:18;;;;;;;0.85;0.70;;;17.00;76.60;;;;;;5052672;28;20224;-64
2023/03/26 03:52:06;;;;;;;0.93;0.80;;;17.00;76.60;;;;;;5052725;28;20753;-64
2023/03/26 03:54:55;;;;;;;0.75;0.75;;;17.00;76.60;;;;;;5052986;28;20233;-64
2023/03/26 03:57:45;;;;;;;1.15;0.70;;;16.90;76.60;;;;;;5041173;28;20209;-64
2023/03/26 04:00:33;;;;;;;0.60;0.60;;;17.00;76.90;;;;;;5032367;28;20230;-63
2023/03/26 04:03:21;;;;;;;1.20;0.95;;;17.00;76.90;;;;;;5032040;28;20230;-63
2023/03/26 04:06:24;;;;;;;0.70;0.60;;;17.00;76.70;;;;;;5031724;28;20684;-64
2023/03/26 04:09:12;;;;;;;1.08;0.80;;;17.00;76.80;;;;;;5032889;28;20317;-64
2023/03/26 04:12:00;;;;;;;0.60;0.60;;;17.00;76.70;;;;;;5031592;28;20204;-64
2023/03/26 04:14:49;;;;;;;1.48;1.38;;;17.00;76.80;;;;;;5031585;28;20347;-64
2023/03/26 04:17:41;;;;;;;1.35;0.70;;;17.00;76.80;;;;;;5032188;28;20202;-63
2023/03/26 04:20:30;;;;;;;0.75;0.70;;;17.00;76.70;;;;;;5031867;28;20212;-64
2023/03/26 04:23:19;;;;;;;0.70;0.70;;;17.00;76.60;;;;;;5031694;28;20213;-65
2023/03/26 04:26:12;;;;;;;2.05;0.85;;;17.00;76.60;;;;;;5031862;28;20211;-64
2023/03/26 04:29:03;;;;;;;0.70;0.70;;;17.00;76.70;;;;;;5031135;28;20308;-65
2023/03/26 04:31:57;;;;;;;1.30;1.20;;;17.00;76.50;;;;;;5031924;28;20789;-65
2023/03/26 04:34:46;;;;;;;3.33;0.80;;;17.00;76.50;;;;;;5031522;28;20872;-65
2023/03/26 04:37:38;;;;;;;3.55;0.90;;;17.00;76.40;;;;;;5030562;28;20198;-65
2023/03/26 04:40:29;;;;;;;2.90;0.93;;;17.00;76.40;;;;;;5030984;28;20212;-64
2023/03/26 04:43:17;;;;;;;1.35;0.80;;;17.00;76.50;;;;;;5030665;28;20243;-65
2023/03/26 04:46:06;;;;;;;0.80;0.80;;;16.90;76.60;;;;;;5031259;28;20284;-65
2023/03/26 04:48:55;;;;;;;0.80;0.77;;;16.90;76.10;;;;;;5031354;28;20322;-64
2023/03/26 04:51:45;;;;;;;0.70;0.70;;;16.90;76.60;;;;;;5031113;28;20198;-65
2023/03/26 04:54:33;;;;;;;0.90;0.80;;;16.80;76.70;;;;;;5031877;28;20198;-65
2023/03/26 04:57:26;;;;;;;0.70;0.70;;;16.80;76.90;;;;;;5040145;28;20243;-65
2023/03/26 05:00:17;;;;;;;1.52;0.80;;;16.90;76.80;;;;;;5051325;28;20294;-65
2023/03/26 05:03:08;;;;;;;1.65;0.70;;;16.90;76.70;;;;;;5051182;28;20201;-65
2023/03/26 05:05:58;;;;;;;1.65;0.80;;;16.90;76.80;;;;;;5052028;28;20569;-64
2023/03/26 05:08:46;;;;;;;2.90;1.83;;;16.70;76.70;;;;;;5051333;28;20291;-65
2023/03/26 05:11:34;;;;;;;0.70;0.70;;;16.90;76.90;;;;;;5051779;28;20197;-65
2023/03/26 05:14:22;;;;;;;1.50;0.88;;;16.90;76.90;;;;;;5052671;28;20332;-65
2023/03/26 05:17:17;;;;;;;1.25;0.80;;;16.90;76.90;;;;;;5053418;28;20208;-65
2023/03/26 05:20:07;;;;;;;4.30;0.90;;;16.90;76.90;;;;;;5106150;22;20232;-67
2023/03/26 05:22:57;;;;;;;3.38;0.88;;;17.00;76.80;;;;;;5093121;28;20223;-67
2023/03/26 05:25:45;;;;;;;1.60;0.90;;;17.00;76.70;;;;;;5094414;28;20290;-68
2023/03/26 05:28:34;;;;;;;2.33;0.73;;;17.00;91.50;;;;;;5094227;28;20207;-68
2023/03/26 05:31:22;;;;;;;1.10;0.77;;;17.10;76.70;;;;;;5094524;28;20672;-68
2023/03/26 05:34:10;;;;;;;1.15;0.80;;;17.10;76.50;;;;;;5093494;28;20200;-68
2023/03/26 05:36:58;;;;;;;1.35;0.90;;;17.10;76.30;;;;;;5093950;28;20200;-67
2023/03/26 05:39:47;;;;;;;1.08;0.80;;;17.10;76.30;;;;;;5093861;28;20696;-67
2023/03/26 05:42:35;;;;;;;0.90;0.77;;;17.10;76.10;;;;;;5094458;28;20704;-68
2023/03/26 05:45:24;;;;;;;0.70;0.70;;;17.10;76.00;;;;;;5093954;28;20224;-67
2023/03/26 05:48:12;;;;;;;0.82;0.82;;;17.10;76.20;;;;;;5094092;28;20285;-67
2023/03/26 05:51:00;;;;;;;1.45;0.80;;;17.10;76.10;;;;;;5094193;28;20334;-67
2023/03/26 05:53:48;;;;;;;3.47;1.35;;;17.10;75.90;;;;;;5094625;28;20630;-65
2023/03/26 05:56:38;;;;;;;1.77;0.98;;;17.10;76.20;;;;;;5097520;28;20195;-65
2023/03/26 05:59:26;;;;;;;0.85;0.85;;;17.10;76.20;;;;;;5096850;28;20727;-68
2023/03/26 06:02:14;;;;;;;2.17;0.98;;;17.00;75.90;;;;;;5096947;28;20258;-66
2023/03/26 06:05:03;;;;;;;0.70;0.70;;;17.00;76.20;;;;;;5096662;28;20200;-67
2023/03/26 06:07:51;;;;;;;2.08;1.02;;;17.00;76.30;;;;;;5097246;28;20245;-66
2023/03/26 06:10:40;;;;;;;3.10;0.73;;;17.00;76.50;;;;;;5096687;28;20635;-69
2023/03/26 06:13:30;;;;;;;0.70;0.70;;;17.00;76.70;;;;;;5096886;28;20200;-66
2023/03/26 06:16:18;;;;;;;1.85;1.08;;;17.00;76.80;;;;;;5096527;28;20333;-66
2023/03/26 06:19:13;;;;;;;4.07;1.00;;;17.00;76.80;;;;;;5096111;28;20228;-67
2023/03/26 06:22:01;;;;;;;1.60;0.70;;;17.00;76.70;;;;;;5096465;28;20235;-67
2023/03/26 06:24:51;;;;;;;2.45;0.80;;;17.10;76.60;;;;;;5096566;28;20277;-67
2023/03/26 06:27:39;;;;;;;0.80;0.70;;;17.00;76.00;;;;;;5096802;28;20203;-68
2023/03/26 06:30:29;;;;;;;1.13;0.75;;;17.10;75.90;;;;;;5096387;28;20267;-68
2023/03/26 06:33:17;;;;;;;1.25;0.90;;;17.00;75.70;;;;;;5096449;28;20204;-66
2023/03/26 06:36:06;;;;;;;1.85;0.88;;;17.10;75.90;;;;;;5096407;28;20282;-67
2023/03/26 06:38:54;;;;;;;1.67;1.25;;;17.10;75.80;;;;;;5096337;28;20227;-66
2023/03/26 06:41:42;;;;;;;1.63;1.20;;;17.10;75.90;;;;;;5095953;28;20293;-67
2023/03/26 06:44:30;;;;;;;1.30;1.00;;;17.10;75.70;;;;;;5096304;28;20274;-67
2023/03/26 06:47:19;;;;;;;2.67;1.30;;;17.00;75.50;;;;;;5095925;28;20283;-67
2023/03/26 06:50:10;;;;;;;2.75;1.00;;;17.00;75.50;;;;;;5096243;28;20704;-66
2023/03/26 06:52:58;;;;;;;0.70;0.63;;;17.00;75.60;;;;;;5095990;28;20211;-67
2023/03/26 06:55:46;;;;;;;0.95;0.93;;;17.00;75.30;;;;;;5096331;28;20337;-67
2023/03/26 06:58:36;;;;;;;1.70;1.05;;;16.80;90.90;;;;;;5095897;28;20680;-67
2023/03/26 07:01:24;;;;;;;1.83;0.85;;;17.00;75.50;;;;;;5089769;28;20204;-66
2023/03/26 07:04:13;;;;;;;1.52;0.80;;;17.00;75.70;;;;;;5075726;28;20687;-67
2023/03/26 07:07:01;;;;;;;0.60;0.60;;;17.00;75.60;;;;;;5076424;28;20253;-67
2023/03/26 07:09:49;;;;;;;0.88;0.70;;;17.00;75.70;;;;;;5075194;28;20357;-67
2023/03/26 07:12:37;;;;;;;1.05;0.73;;;16.90;75.50;;;;;;5075766;28;20280;-67
2023/03/26 07:15:27;;;;;;;0.77;0.70;;;17.00;75.50;;;;;;5075333;28;20204;-67
2023/03/26 07:18:15;;;;;;;0.98;0.90;;;17.00;75.40;;;;;;5075888;28;20200;-67
2023/03/26 07:21:06;;;;;;;1.08;0.65;;;17.00;75.20;;;;;;5076044;28;20673;-68
2023/03/26 07:23:54;;;;;;;0.95;0.80;;;17.00;75.30;;;;;;5075458;28;20303;-68
2023/03/26 07:26:51;;;;;;;0.75;0.75;;;17.00;75.40;;;;;;5074930;28;20200;-67
2023/03/26 07:29:45;;;;;;;1.30;0.85;;;17.00;75.50;;;;;;5075194;28;20779;-68
2023/03/26 07:32:41;;;;;;;2.28;0.80;;;17.10;75.40;;;;;;5074984;28;20254;-67
2023/03/26 07:35:36;;;;;;;0.70;0.70;;;17.00;75.50;;;;;;5075075;28;20207;-68
2023/03/26 07:38:47;;;;;;;1.75;0.80;;;17.00;90.30;;;;;;5075532;28;20220;-66
2023/03/26 07:41:43;;;;;;;0.75;0.73;;;17.10;75.60;;;;;;5075138;28;20556;-68
2023/03/26 07:44:47;;;;;;;2.00;1.08;;;17.10;75.60;;;;;;5074716;28;20228;-69
2023/03/26 07:47:36;;;;;;;1.02;0.82;;;17.10;75.60;;;;;;5074979;28;20192;-66
2023/03/26 07:50:25;;;;;;;0.80;0.75;;;17.10;75.60;;;;;;5075480;28;20217;-67
2023/03/26 07:53:14;;;;;;;1.10;1.00;;;17.10;75.90;;;;;;5075624;28;20245;-67
2023/03/26 07:56:11;;;;;;;1.10;0.82;;;17.10;75.90;;;;;;5075457;28;20266;-67
2023/03/26 07:59:09;;;;;;;0.80;0.70;;;17.10;75.80;;;;;;5075520;28;20982;-70
2023/03/26 08:02:17;;;;;;;1.42;0.80;;;17.10;76.10;;;;;;5074098;28;20287;-68
2023/03/26 08:05:17;;;;;;;0.70;0.70;;;17.10;76.10;;;;;;5074239;28;20242;-69
2023/03/26 08:08:16;;;;;;;1.85;0.70;;;17.10;76.20;;;;;;5074977;28;20677;-67
2023/03/26 08:11:18;;;;;;;0.60;0.60;;;17.10;76.30;;;;;;5074152;28;20215;-66
2023/03/26 08:14:18;;;;;;;0.90;0.85;;;17.00;76.20;;;;;;5072446;28;20735;-68
2023/03/26 08:17:11;;;;;;;1.48;1.10;;;17.10;76.10;;;;;;5072660;28;20688;-67
2023/03/26 08:20:10;;;;;;;0.90;0.70;;;17.10;76.00;;;;;;5073823;28;20267;-68
2023/03/26 08:23:05;;;;;;;0.82;0.80;;;17.10;75.90;;;;;;5073429;28;20301;-66
2023/03/26 08:26:01;;;;;;;1.83;1.00;;;17.10;75.80;;;;;;5073015;28;20204;-67
2023/03/26 08:29:01;;;;;;;1.90;1.42;;;17.10;75.90;;;;;;5072794;28;20231;-68
2023/03/26 08:31:51;;;;;;;1.08;0.70;;;17.10;75.50;;;;;;5073694;28;20196;-69
2023/03/26 08:34:39;;;;;;;0.90;0.80;;;17.20;75.40;;;;;;5073461;28;20197;-69
2023/03/26 08:37:28;;;;;;;1.20;0.90;;;17.20;75.20;;;;;;5073436;28;20199;-69
2023/03/26 08:40:31;;;;;;;0.80;0.80;;;17.10;74.50;;;;;;5072809;28;20248;-69
2023/03/26 08:43:37;;;;;;;2.70;1.02;;;17.20;74.30;;;;;;5073383;28;20223;-68
2023/03/26 08:46:47;;;;;;;1.40;0.80;;;17.20;74.50;;;;;;5073602;28;20208;-69
2023/03/26 08:50:03;;;;;;;0.70;0.70;;;17.30;74.50;;;;;;5072605;28;20216;-68
2023/03/26 08:53:20;;;;;;;3.20;1.52;;;17.30;74.50;;;;;;5073402;28;20204;-68
2023/03/26 08:56:17;;;;;;;1.85;0.80;;;17.30;74.20;;;;;;5073646;28;20258;-67
2023/03/26 08:59:41;;;;;;;3.03;1.08;;;17.30;74.20;;;;;;5073380;28;20213;-67
2023/03/26 09:03:01;;;;;;;1.90;0.90;;;17.30;74.30;;;;;;5074589;28;20235;-68
2023/03/26 09:06:22;;;;;;;1.88;0.82;;;17.30;74.10;;;;;;5073691;28;20256;-67
2023/03/26 09:09:50;;;;;;;1.05;0.80;;;17.30;74.00;;;;;;5062148;28;20225;-66
2023/03/26 09:13:14;;;;;;;1.08;0.85;;;17.30;74.20;;;;;;5051970;28;20212;-68
2023/03/26 09:16:37;;;;;;;0.98;0.88;;;17.30;74.10;;;;;;5074324;28;20212;-67
2023/03/26 09:19:54;;;;;;;2.25;1.25;;;17.30;73.50;;;;;;5073963;28;20224;-67
2023/03/26 09:22:55;;;;;;;1.45;0.77;;;17.30;73.80;;;;;;5072846;28;20251;-67
2023/03/26 09:26:01;;;;;;;1.48;0.88;;;17.30;73.90;;;;;;5073411;28;20207;-67
2023/03/26 09:29:31;;;;;;;3.45;1.33;;;17.30;73.90;;;;;;5073809;28;20266;-67
2023/03/26 09:32:45;;;;;;;2.50;0.98;;;17.30;74.10;;;;;;5076693;28;20204;-68
2023/03/26 09:35:51;;;;;;;2.85;0.90;;;17.30;73.70;;;;;;5077190;28;20224;-68
2023/03/26 09:38:43;;;;;;;1.15;1.00;;;17.30;74.00;;;;;;5076624;28;20307;-68
2023/03/26 09:41:37;;;;;;;1.83;0.90;;;17.30;73.80;;;;;;5075886;28;20228;-69
2023/03/26 09:45:07;;;;;;;4.43;1.10;;;17.30;73.70;;;;;;5076623;28;20216;-67
2023/03/26 09:48:20;;;;;;;0.70;0.70;;;17.40;73.80;;;;;;5075880;28;20219;-67
2023/03/26 09:51:36;;;;;;;1.17;0.80;;;17.30;73.30;;;;;;5075633;28;20318;-68
2023/03/26 09:54:53;;;;;;;2.55;1.00;;;17.30;73.10;;;;;;5075361;28;20568;-69
2023/03/26 09:57:59;;;;;;;2.75;0.90;;;17.40;73.00;;;;;;5086750;28;20293;-68
2023/03/26 10:00:53;;;;;;;1.85;0.80;;;17.40;73.10;;;;;;5095075;28;20230;-68
2023/03/26 10:03:53;;;;;;;4.20;0.85;;;17.40;72.80;;;;;;5095145;28;20219;-68
2023/03/26 10:06:59;;;;;;;1.25;0.93;;;17.40;73.00;;;;;;5095919;28;20296;-69
2023/03/26 10:09:56;;;;;;;1.25;0.90;;;17.40;73.10;;;;;;5095595;28;20222;-68
2023/03/26 10:12:50;;;;;;;1.73;1.25;;;17.30;72.70;;;;;;5094784;28;20241;-68
2023/03/26 10:15:57;;;;;;;1.10;0.80;;;17.30;73.00;;;;;;5094594;28;20196;-68
2023/03/26 10:18:55;;;;;;;1.25;1.20;;;17.30;73.00;;;;;;5094570;28;20219;-69
2023/03/26 10:21:51;;;;;;;0.90;0.80;;;17.30;73.20;;;;;;5093367;28;20257;-69
2023/03/26 10:25:00;;;;;;;1.02;0.82;;;17.30;73.00;;;;;;5094385;28;20215;-68
2023/03/26 10:27:58;;;;;;;4.55;1.13;;;17.40;73.20;;;;;;5093907;28;20225;-69
2023/03/26 10:31:08;;;;;;;2.20;0.80;;;17.30;72.30;;;;;;5095364;28;20199;-68
2023/03/26 10:34:05;;;;;;;1.38;0.98;;;17.30;72.50;;;;;;5095190;28;20215;-67
2023/03/26 10:36:57;;;;;;;1.35;1.05;;;17.40;72.40;;;;;;5095870;28;20567;-68
2023/03/26 10:40:16;;;;;;;1.55;0.90;;;17.40;72.70;;;;;;5094966;28;20220;-68
2023/03/26 10:43:52;;;;;;;3.50;1.80;;;17.30;72.70;;;;;;5094855;28;20200;-69
2023/03/26 10:47:14;;;;;;;2.35;1.00;;;17.40;72.60;;;;;;5095206;28;20218;-69
2023/03/26 10:50:32;;;;;;;1.85;1.00;;;17.40;72.50;;;;;;5095427;28;20219;-69
2023/03/26 10:53:30;;;;;;;0.98;0.70;;;17.40;72.20;;;;;;5094980;28;20232;-67
2023/03/26 10:56:24;;;;;;;3.25;1.23;;;17.40;72.50;;;;;;5094264;28;20199;-68
2023/03/26 10:59:14;;;;;;;2.20;0.80;;;17.40;72.30;;;;;;5095605;28;20565;-68
2023/03/26 11:02:22;;;;;;;1.00;0.90;;;17.40;72.30;;;;;;5095213;28;20207;-68
2023/03/26 11:05:39;;;;;;;2.22;0.88;;;17.40;72.20;;;;;;5095586;28;20242;-68
2023/03/26 11:08:37;;;;;;;1.55;0.70;;;17.30;84.50;;;;;;5095263;28;20204;-69
2023/03/26 11:11:31;;;;;;;1.60;0.70;;;17.40;72.50;;;;;;5093916;28;20200;-69
2023/03/26 11:14:27;;;;;;;2.35;0.90;;;17.40;72.60;;;;;;5094411;28;20688;-69
2023/03/26 11:17:34;;;;;;;2.22;0.95;;;17.40;72.90;;;;;;5094561;28;20582;-70
2023/03/26 11:20:37;;;;;;;1.25;1.15;;;17.40;72.80;;;;;;5102189;22;20321;-66
2023/03/26 11:23:34;;;;;;;1.55;0.90;;;17.40;73.20;;;;;;5072826;28;20622;-66
2023/03/26 11:26:32;;;;;;;1.58;1.23;;;17.50;72.80;;;;;;5072988;28;20248;-65
2023/03/26 11:29:40;;;;;;;2.78;0.98;;;17.50;72.30;;;;;;5076282;28;20301;-66
2023/03/26 11:32:38;;;;;;;1.27;1.17;;;17.50;72.30;;;;;;5093764;28;20257;-66
2023/03/26 11:35:31;;;;;;;1.73;0.90;;;17.50;72.20;;;;;;5094032;28;20241;-66
2023/03/26 11:38:36;;;;;;;0.80;0.80;;;17.50;72.50;;;;;;5093718;28;20199;-66
2023/03/26 11:41:27;;;;;;;0.70;0.70;;;17.50;72.40;;;;;;5093573;28;20204;-66
2023/03/26 11:44:21;;;;;;;1.55;0.93;;;17.50;72.40;;;;;;5093707;28;20312;-66
2023/03/26 11:47:11;;;;;;;1.50;1.05;;;17.50;72.20;;;;;;5093721;28;20211;-66
2023/03/26 11:50:03;;;;;;;1.02;0.80;;;17.50;72.50;;;;;;5094187;28;20239;-66
2023/03/26 11:52:51;;;;;;;2.65;1.00;;;17.50;72.30;;;;;;5092513;28;20204;-66
2023/03/26 11:55:44;;;;;;;1.58;0.95;;;17.60;72.30;;;;;;5092983;28;20239;-66
2023/03/26 11:58:38;;;;;;;1.40;0.80;;;17.50;72.10;;;;;;5093871;28;20273;-66
2023/03/26 12:01:29;;;;;;;1.15;0.80;;;17.60;72.20;;;;;;5092269;28;20624;-66
2023/03/26 12:04:19;;;;;;;1.67;0.82;;;17.60;71.90;;;;;;5091705;28;20208;-66
2023/03/26 12:07:15;;;;;;;1.67;0.82;;;17.50;71.50;;;;;;5092750;28;20203;-66
2023/03/26 12:10:05;;;;;;;1.10;0.70;;;17.60;71.50;;;;;;5092584;28;20224;-66
2023/03/26 12:13:25;;;;;;;1.42;0.80;;;17.60;71.60;;;;;;5091252;28;20283;-66
2023/03/26 12:16:15;;;;;;;2.88;0.95;;;17.50;71.60;;;;;;5091836;28;20203;-66
2023/03/26 12:19:19;;;;;;;0.80;0.80;;;17.60;71.80;;;;;;5090903;28;20228;-66
2023/03/26 12:22:28;;;;;;;2.25;1.00;;;17.60;73.50;;;;;;5091369;28;20211;-66
2023/03/26 12:25:19;;;;;;;1.13;0.90;;;17.60;72.30;;;;;;5091460;28;20281;-66
2023/03/26 12:28:18;;;;;;;1.80;0.82;;;17.60;72.20;;;;;;5091811;28;20278;-66
2023/03/26 12:31:11;;;;;;;2.42;0.98;;;17.70;71.70;;;;;;5091715;28;20304;-65
2023/03/26 12:34:15;;;;;;;1.98;0.80;;;17.70;70.50;;;;;;5091895;28;20202;-66
2023/03/26 12:37:06;;;;;;;1.63;0.70;;;17.70;71.10;;;;;;5091702;28;20195;-66
2023/03/26 12:40:10;;;;;;;0.70;0.70;;;17.80;70.40;;;;;;5090366;28;20289;-66
2023/03/26 12:43:06;;;;;;;1.45;0.90;;;17.80;69.80;;;;;;5091030;28;20210;-66
2023/03/26 12:46:24;;;;;;;1.40;0.73;;;17.80;70.00;;;;;;5091924;28;20234;-65
2023/03/26 12:49:34;;;;;;;1.15;0.75;;;17.80;69.80;;;;;;5091495;28;20220;-66
2023/03/26 12:52:46;;;;;;;0.70;0.70;;;17.90;70.20;;;;;;5091205;28;20719;-66
2023/03/26 12:55:42;;;;;;;2.25;0.80;;;17.90;70.10;;;;;;5092637;28;20192;-66
2023/03/26 12:59:00;;;;;;;1.08;0.90;;;17.90;70.20;;;;;;5091491;28;20200;-65
2023/03/26 13:01:58;;;;;;;0.80;0.80;;;17.90;70.20;;;;;;5092042;28;20196;-66
2023/03/26 13:05:02;;;;;;;0.80;0.80;;;17.90;70.00;;;;;;5095944;28;20581;-66
2023/03/26 13:08:05;;;;;;;2.17;1.23;;;17.90;70.00;;;;;;5096600;28;20226;-66
2023/03/26 13:11:04;;;;;;;2.45;1.00;;;17.90;69.90;;;;;;5095860;28;20253;-66
2023/03/26 13:14:14;;;;;;;0.80;0.80;;;18.00;70.10;;;;;;5096431;28;20199;-66
2023/03/26 13:17:08;;;;;;;1.17;1.08;;;18.00;70.00;;;;;;5095762;28;20204;-66
2023/03/26 13:20:10;;;;;;;3.75;1.60;;;17.90;70.30;;;;;;5096244;28;20255;-66
2023/03/26 13:23:04;;;;;;;1.40;1.23;;;17.90;71.00;;;;;;5095989;28;20203;-66
2023/03/26 13:26:03;;;;;;;1.30;0.90;;;17.90;70.50;;;;;;5097010;28;20737;-66
2023/03/26 13:29:03;;;;;;;0.90;0.90;;;18.00;87.80;;;;;;5094591;28;20260;-66
2023/03/26 13:32:03;;;;;;;2.75;1.67;;;17.90;71.00;;;;;;5095821;28;20200;-66
2023/03/26 13:35:08;;;;;;;1.10;1.00;;;17.90;71.10;;;;;;5095816;28;20745;-66
2023/03/26 13:38:04;;;;;;;1.45;0.85;;;17.80;70.70;;;;;;5094607;28;20202;-66
2023/03/26 13:41:01;;;;;;;1.50;1.10;;;17.80;71.10;;;;;;5095506;28;20215;-66
2023/03/26 13:43:59;;;;;;;1.30;1.20;;;17.80;70.90;;;;;;5094598;28;20277;-66
2023/03/26 13:46:51;;;;;;;2.05;1.27;;;17.80;71.50;;;;;;5095250;28;20269;-66
2023/03/26 13:49:43;;;;;;;3.92;2.72;;;17.80;71.60;;;;;;5095096;28;20314;-66
2023/03/26 13:52:38;;;;;;;1.80;1.20;;;17.80;71.80;;;;;;5095628;28;20199;-66
2023/03/26 13:55:30;;;;;;;1.88;1.00;;;17.80;71.80;;;;;;5095300;28;20670;-66
2023/03/26 13:58:25;;;;;;;1.30;0.80;;;17.80;71.90;;;;;;5095595;28;20766;-66
2023/03/26 14:01:32;;;;;;;1.70;0.98;;;17.80;72.10;;;;;;5103207;28;20200;-64
2023/03/26 14:04:25;;;;;;;1.73;1.00;;;17.80;71.90;;;;;;5096979;28;20222;-66
2023/03/26 14:07:21;;;;;;;1.67;0.80;;;17.90;71.90;;;;;;5102190;28;20242;-66
2023/03/26 14:10:14;;;;;;;2.67;0.90;;;17.90;71.60;;;;;;5095414;28;20346;-66
2023/03/26 14:13:09;;;;;;;2.05;1.00;;;17.90;71.20;;;;;;5095750;28;20602;-66
2023/03/26 14:16:02;;;;;;;1.92;1.10;;;17.90;71.10;;;;;;5094825;28;20196;-67
2023/03/26 14:18:58;;;;;;;1.00;0.80;;;18.10;87.70;;;;;;5092870;28;20203;-66
2023/03/26 14:21:57;;;;;;;1.50;0.80;;;17.90;70.80;;;;;;5094421;28;20326;-66
2023/03/26 14:25:08;;;;;;;2.13;1.00;;;17.90;70.80;;;;;;5094211;28;20204;-66
2023/03/26 14:28:15;;;;;;;0.70;0.70;;;17.90;70.70;;;;;;5093901;28;20198;-66
2023/03/26 14:31:19;;;;;;;1.45;1.10;;;17.90;70.80;;;;;;5093897;28;20281;-66
2023/03/26 14:34:28;;;;;;;1.13;0.90;;;17.90;70.80;;;;;;5093139;28;20191;-71
2023/03/26 14:37:31;;;;;;;0.80;0.70;;;17.90;71.10;;;;;;5093748;28;20223;-65
2023/03/26 14:40:28;;;;;;;1.20;0.82;;;17.90;71.20;;;;;;5093328;28;20251;-66
2023/03/26 14:43:47;;;;;;;1.45;0.70;;;17.90;71.50;;;;;;5093293;28;20203;-65
2023/03/26 14:46:56;;;;;;;0.88;0.73;;;17.90;71.90;;;;;;5094334;28;20300;-66
2023/03/26 14:50:41;;;;;;;1.08;0.82;;;17.90;71.60;;;;;;5093627;28;20731;-66
2023/03/26 14:53:33;;;;;;;1.00;0.80;;;17.80;71.70;;;;;;5093559;28;20226;-66
2023/03/26 14:56:45;;;;;;;0.70;0.70;;;17.90;71.40;;;;;;5093119;28;20613;-66
2023/03/26 15:00:15;;;;;;;1.60;0.80;;;17.80;71.30;;;;;;5094591;28;20220;-66
2023/03/26 15:03:38;;;;;;;0.95;0.80;;;17.80;71.10;;;;;;5092676;28;20277;-66
2023/03/26 15:06:59;;;;;;;2.15;0.80;;;17.90;71.20;;;;;;5093471;28;20273;-65
2023/03/26 15:10:13;;;;;;;0.82;0.82;;;17.90;70.60;;;;;;5094564;28;20572;-66
2023/03/26 15:13:12;;;;;;;1.92;0.70;;;17.90;71.00;;;;;;5092497;28;20701;-68
2023/03/26 15:16:37;;;;;;;0.93;0.80;;;17.90;71.40;;;;;;5092925;28;20196;-66
2023/03/26 15:19:51;;;;;;;0.80;0.80;;;17.90;71.60;;;;;;5093207;28;20719;-66